Terminal Aerodrome Forecast
Issued by NWS

Current Version | Previous Version | Text Only | Print | Product List | Glossary On
Versions: 1 2 3 4 5 6 7 8 9 10 11 12 13 14
000
FTUS46 KLOX 060500 RRA
TAFWJF
TAF
KWJF 060543Z 0606/0706 23016G21KT P6SM SKC
     FM061700 23022G32KT P6SM SKC
     FM062100 23027G39KT 6SM BLDU FEW060
     FM070300 23021G26KT P6SM SKC=

USA.gov is the U.S. government's official web portal to all federal, state and local government web resources and services.